Time;durP1;ratioP1;P1;durP2;ratioP2;P2;SDS_P1;SDS_P2;PMS_P1;PMS_P2;Temp;Humidity;BMP_temperature;BMP_pressure;BME280_temperature;BME280_humidity;BME280_pressure;Samples;Min_cycle;Max_cycle;Signal;HPM_P1;HPM_P2
2022/05/29 00:00:47;;;;;;;7.67;2.17;;;;;;;18.75;44.05;101975.88;5064669;28;20413;-73
2022/05/29 00:03:13;;;;;;;7.27;1.70;;;;;;;19.07;43.08;101968.88;5032637;28;20539;-73
2022/05/29 00:05:39;;;;;;;9.67;2.23;;;;;;;18.78;43.82;101973.13;5030078;28;20068;-74
2022/05/29 00:08:06;;;;;;;4.27;2.00;;;;;;;18.36;43.82;101959.22;5030322;28;20451;-73
2022/05/29 00:10:36;;;;;;;5.77;1.50;;;;;;;18.60;44.26;101963.00;5033727;28;20091;-74
2022/05/29 00:13:01;;;;;;;13.07;2.30;;;;;;;18.79;42.82;101958.09;5031695;28;20031;-73
2022/05/29 00:15:26;;;;;;;3.73;1.60;;;;;;;19.09;42.81;101961.72;5032276;28;20116;-74
2022/05/29 00:17:52;;;;;;;5.70;1.97;;;;;;;18.54;43.81;101953.44;5031571;28;20118;-73
2022/05/29 00:20:17;;;;;;;6.07;2.27;;;;;;;18.60;43.38;101957.72;5025259;28;20036;-74
2022/05/29 00:22:43;;;;;;;6.93;1.53;;;;;;;18.54;42.90;101955.25;5031527;28;20033;-73
2022/05/29 00:25:10;;;;;;;7.53;1.73;;;;;;;18.13;43.28;101953.59;5030669;28;20036;-73
2022/05/29 00:27:37;;;;;;;8.30;1.47;;;;;;;18.52;43.60;101949.09;5015299;28;20076;-73
2022/05/29 00:30:06;;;;;;;4.73;1.53;;;;;;;18.54;42.86;101944.66;5012507;28;20453;-74
2022/05/29 00:32:31;;;;;;;4.37;1.80;;;;;;;18.41;43.43;101936.13;5030292;28;20057;-73
2022/05/29 00:34:57;;;;;;;5.87;1.60;;;;;;;18.27;43.64;101944.41;5029533;28;20599;-74
2022/05/29 00:37:22;;;;;;;3.93;1.93;;;;;;;18.53;42.97;101941.13;5032405;28;20037;-74
2022/05/29 00:39:50;;;;;;;6.67;1.60;;;;;;;18.72;42.48;101946.81;5031058;28;20435;-74
2022/05/29 00:42:18;;;;;;;5.83;1.50;;;;;;;18.44;43.10;101942.22;5032365;28;20040;-73
2022/05/29 00:44:44;;;;;;;7.70;1.70;;;;;;;18.57;43.61;101947.22;5031806;28;20037;-74
2022/05/29 00:47:15;;;;;;;11.43;2.40;;;;;;;18.23;43.81;101946.28;5031876;28;20029;-75
2022/05/29 00:49:43;;;;;;;7.43;1.73;;;;;;;18.56;43.70;101940.16;5031733;28;20037;-74
2022/05/29 00:52:13;;;;;;;9.23;1.80;;;;;;;18.95;42.58;101935.63;5031285;28;20029;-73
2022/05/29 00:54:53;;;;;;;5.23;1.70;;;;;;;18.78;42.24;101930.75;5030855;28;20059;-73
2022/05/29 00:57:25;;;;;;;7.20;1.80;;;;;;;18.66;42.83;101928.44;5030739;28;20400;-73
2022/05/29 00:59:52;;;;;;;5.85;1.42;;;;;;;18.62;43.00;101925.00;5063652;28;20048;-74
2022/05/29 01:02:18;;;;;;;4.33;1.87;;;;;;;18.19;44.48;101919.94;5032022;28;20507;-74
2022/05/29 01:04:43;;;;;;;8.63;1.90;;;;;;;18.43;43.53;101919.31;5030870;28;20477;-74
2022/05/29 01:07:12;;;;;;;5.57;1.60;;;;;;;17.97;44.18;101917.81;5029770;28;20017;-73
2022/05/29 01:09:40;;;;;;;6.20;1.80;;;;;;;18.38;43.43;101909.75;5032012;28;20043;-74
2022/05/29 01:12:09;;;;;;;3.37;1.60;;;;;;;18.32;43.34;101905.50;5032159;28;20033;-73
2022/05/29 01:14:54;;;;;;;6.70;2.33;;;;;;;18.45;43.80;101912.22;5029402;28;20033;-74
2022/05/29 01:17:28;;;;;;;7.30;1.57;;;;;;;18.17;44.09;101900.59;5028571;28;20103;-73
2022/05/29 01:20:15;;;;;;;9.47;2.27;;;;;;;18.38;43.47;101899.16;5028337;28;20061;-74
2022/05/29 01:22:49;;;;;;;5.57;1.37;;;;;;;18.20;43.03;101887.28;5063081;28;20048;-73
2022/05/29 01:25:33;;;;;;;5.07;1.57;;;;;;;18.27;43.11;101888.84;5031369;28;20037;-74
2022/05/29 01:27:59;;;;;;;2.97;1.47;;;;;;;18.07;43.37;101887.59;5025263;28;20100;-73
2022/05/29 01:30:28;;;;;;;9.20;2.47;;;;;;;17.97;43.94;101888.72;5029079;28;20046;-74
2022/05/29 01:33:03;;;;;;;6.10;1.63;;;;;;;17.67;44.32;101883.22;5030237;28;20025;-73
2022/05/29 01:35:35;;;;;;;7.67;1.40;;;;;;;17.54;44.08;101887.91;5031076;28;20029;-74
2022/05/29 01:38:09;;;;;;;9.05;1.63;;;;;;;18.01;43.44;101885.09;5030058;28;20029;-73
2022/05/29 01:40:43;;;;;;;4.27;1.30;;;;;;;18.06;43.78;101879.69;5028928;28;20040;-74
2022/05/29 01:43:21;;;;;;;6.57;1.80;;;;;;;17.80;43.51;101882.03;5010930;28;20053;-74
2022/05/29 01:45:55;;;;;;;5.03;1.40;;;;;;;18.40;42.93;101876.19;5030540;28;20104;-74
2022/05/29 01:48:49;;;;;;;8.13;1.80;;;;;;;18.25;43.08;101875.66;5027273;28;20060;-74
2022/05/29 01:51:16;;;;;;;4.70;1.70;;;;;;;18.24;43.11;101870.41;5024363;28;20036;-73
2022/05/29 01:53:47;;;;;;;5.47;1.40;;;;;;;18.10;43.23;101874.28;5030689;28;20079;-73
2022/05/29 01:56:21;;;;;;;2.87;1.60;;;;;;;18.45;42.33;101875.16;5029848;28;20060;-73
2022/05/29 01:59:06;;;;;;;8.53;2.03;;;;;;;18.59;41.79;101871.28;5031682;28;20021;-74
2022/05/29 02:01:39;;;;;;;9.90;1.40;;;;;;;18.59;42.01;101873.94;5025759;28;20055;-74
2022/05/29 02:04:08;;;;;;;5.85;1.35;;;;;;;18.50;42.85;101874.16;5030040;28;20429;-74
2022/05/29 02:09:32;;;;;;;6.67;1.87;;;;;;;18.82;42.56;101868.84;5030615;28;20563;-74
2022/05/29 02:12:00;;;;;;;6.57;1.77;;;;;;;19.21;42.18;101861.63;5028169;28;20029;-74
2022/05/29 02:14:39;;;;;;;8.53;1.57;;;;;;;18.77;42.12;101864.59;5031553;28;20029;-73
2022/05/29 02:17:23;;;;;;;6.83;1.70;;;;;;;18.84;42.52;101867.94;5031147;28;20022;-73
2022/05/29 02:19:52;;;;;;;4.17;1.43;;;;;;;18.73;42.49;101863.81;5016877;28;20080;-74
2022/05/29 02:22:25;;;;;;;5.00;1.60;;;;;;;18.85;42.45;101861.72;5029055;28;20025;-74
2022/05/29 02:25:00;;;;;;;5.60;1.25;;;;;;;19.06;41.87;101861.13;5031512;28;20142;-74
2022/05/29 02:27:31;;;;;;;6.10;1.40;;;;;;;19.32;41.54;101847.09;5032533;28;20037;-72
2022/05/29 02:30:01;;;;;;;6.27;1.50;;;;;;;19.19;41.97;101839.56;5032007;28;20050;-72
2022/05/29 02:32:51;;;;;;;5.77;1.43;;;;;;;19.41;41.75;101855.69;5035265;28;20033;-72
2022/05/29 02:35:24;;;;;;;6.20;1.43;;;;;;;19.42;41.60;101838.88;5066580;28;20061;-72
2022/05/29 02:38:00;;;;;;;4.43;1.50;;;;;;;18.60;42.89;101846.50;5034476;28;20061;-72
2022/05/29 02:40:36;;;;;;;5.83;2.90;;;;;;;19.45;42.05;101837.00;5034325;28;20040;-72
2022/05/29 02:43:21;;;;;;;10.33;2.57;;;;;;;19.05;43.12;101834.69;5035171;28;20037;-72
2022/05/29 02:46:06;;;;;;;4.73;1.40;;;;;;;19.62;41.06;101827.63;5033586;28;20083;-72
2022/05/29 02:48:41;;;;;;;2.90;1.60;;;;;;;19.30;42.48;101832.16;5034471;28;20021;-72
2022/05/29 02:51:44;;;;;;;3.77;1.40;;;;;;;19.85;41.20;101823.38;5033651;28;20030;-73
2022/05/29 02:54:25;;;;;;;4.65;2.00;;;;;;;19.31;42.26;101818.00;5064976;28;20143;-73
2022/05/29 02:56:51;;;;;;;9.70;2.30;;;;;;;19.44;42.12;101824.66;5031413;28;20385;-73
2022/05/29 02:59:17;;;;;;;7.27;1.60;;;;;;;19.50;41.91;101821.78;5035081;28;20499;-72
2022/05/29 03:02:11;;;;;;;9.57;2.03;;;;;;;19.99;41.30;101823.81;5066250;28;20320;-72
2022/05/29 03:04:40;;;;;;;5.60;1.77;;;;;;;19.65;41.92;101819.56;5033793;28;20049;-72
2022/05/29 03:07:18;;;;;;;10.50;1.97;;;;;;;19.48;42.41;101831.59;5024889;28;20059;-73
2022/05/29 03:10:07;;;;;;;9.43;1.13;;;;;;;19.03;43.31;101818.84;5028404;28;20473;-73
2022/05/29 03:12:56;;;;;;;3.60;1.10;;;;;;;18.67;44.74;101833.97;5025724;28;20022;-72
2022/05/29 03:15:34;;;;;;;4.43;1.00;;;;;;;19.23;43.68;101825.31;5012120;28;20028;-73
2022/05/29 03:18:37;;;;;;;3.73;1.37;;;;;;;19.28;43.04;101829.56;5031163;28;20033;-72
2022/05/29 03:21:06;;;;;;;5.55;1.15;;;;;;;17.79;46.04;101835.34;5032417;28;20088;-72
2022/05/29 03:24:03;;;;;;;8.40;1.10;;;;;;;18.28;44.71;101835.03;5065717;28;20029;-73
2022/05/29 03:26:40;;;;;;;5.33;1.43;;;;;;;18.37;45.02;101840.09;5029840;28;20029;-72
2022/05/29 03:29:19;;;;;;;6.60;1.27;;;;;;;18.00;46.17;101841.03;5032907;28;20049;-73
2022/05/29 03:31:46;;;;;;;7.30;1.10;;;;;;;18.40;45.64;101844.44;5030436;28;20018;-72
2022/05/29 03:34:13;;;;;;;5.53;1.43;;;;;;;18.66;44.79;101841.06;5034345;28;20028;-73
2022/05/29 03:36:48;;;;;;;5.17;1.00;;;;;;;18.29;45.95;101842.91;5029934;28;20037;-72
2022/05/29 03:39:13;;;;;;;7.73;1.20;;;;;;;18.18;46.39;101838.84;5033514;28;20061;-71
2022/05/29 03:41:46;;;;;;;4.67;1.00;;;;;;;18.24;47.33;101839.53;5032223;28;20108;-72
2022/05/29 03:44:13;;;;;;;6.75;2.42;;;;;;;18.98;46.07;101828.69;5032880;28;20025;-72
2022/05/29 03:46:39;;;;;;;5.60;1.00;;;;;;;18.69;46.71;101830.38;5032068;28;20034;-72
2022/05/29 03:49:07;;;;;;;5.87;1.43;;;;;;;18.96;47.00;101827.91;5033071;28;20035;-72
2022/05/29 03:51:32;;;;;;;6.10;1.60;;;;;;;18.61;47.45;101832.38;5056412;28;20021;-72
2022/05/29 03:53:58;;;;;;;6.10;1.30;;;;;;;18.36;47.52;101827.75;5011806;28;20109;-72
2022/05/29 03:56:23;;;;;;;2.63;1.37;;;;;;;18.30;48.94;101830.56;5043257;28;20087;-71
2022/05/29 03:58:48;;;;;;;3.93;1.33;;;;;;;18.41;47.71;101825.84;5031018;28;20018;-71
2022/05/29 04:01:14;;;;;;;3.73;1.23;;;;;;;18.82;47.29;101826.47;5032815;28;20026;-71
2022/05/29 04:03:39;;;;;;;7.50;1.27;;;;;;;19.34;45.64;101812.59;5032402;28;20031;-71
2022/05/29 04:06:04;;;;;;;5.67;1.50;;;;;;;19.33;46.38;101810.88;5031800;28;20130;-71
2022/05/29 04:13:58;;;;;;;2.17;1.23;;;;;;;19.07;46.44;101799.28;5033681;28;20056;-72
2022/05/29 04:16:23;;;;;;;4.53;1.10;;;;;;;19.30;46.33;101800.34;5031184;28;20449;-71
2022/05/29 04:18:49;;;;;;;5.70;1.63;;;;;;;19.23;46.32;101804.09;5031776;28;20029;-72
2022/05/29 04:21:14;;;;;;;3.57;1.30;;;;;;;19.74;45.36;101800.72;5032578;28;20037;-72
2022/05/29 04:23:39;;;;;;;1.43;1.00;;;;;;;19.55;45.55;101795.16;5030512;28;20537;-71
2022/05/29 04:26:05;;;;;;;2.63;1.20;;;;;;;19.96;44.75;101795.59;5031821;28;20071;-71
2022/05/29 04:28:30;;;;;;;4.10;1.30;;;;;;;19.12;46.53;101792.06;5033180;28;20050;-71
2022/05/29 04:30:56;;;;;;;6.57;1.23;;;;;;;19.52;45.56;101797.03;5032054;28;20100;-72
2022/05/29 04:33:22;;;;;;;4.83;1.70;;;;;;;19.33;46.26;101789.66;5032519;28;20049;-71
2022/05/29 04:35:52;;;;;;;5.37;1.30;;;;;;;19.71;46.20;101798.16;5032279;28;20033;-71
2022/05/29 04:38:19;;;;;;;3.47;1.20;;;;;;;19.62;46.30;101793.16;5030951;28;20032;-71
2022/05/29 04:40:45;;;;;;;3.80;1.37;;;;;;;19.69;45.99;101792.03;5031777;28;20056;-72
2022/05/29 04:43:12;;;;;;;4.87;1.27;;;;;;;19.94;45.30;101794.75;5032968;28;20143;-71
2022/05/29 04:45:40;;;;;;;8.00;1.57;;;;;;;19.83;45.68;101800.41;5031353;28;20025;-73
2022/05/29 04:48:06;;;;;;;4.50;1.13;;;;;;;20.25;45.71;101796.34;5022632;28;20026;-71
2022/05/29 04:50:32;;;;;;;6.33;1.63;;;;;;;19.10;46.50;101791.25;5033073;28;20041;-71
2022/05/29 04:52:57;;;;;;;4.13;1.20;;;;;;;17.92;50.07;101809.47;5030591;28;20484;-71
2022/05/29 04:55:23;;;;;;;5.07;1.37;;;;;;;18.93;48.12;101804.13;5030816;28;20024;-71
2022/05/29 04:57:48;;;;;;;6.30;1.10;;;;;;;17.70;50.22;101801.19;5032845;28;20482;-71
2022/05/29 05:00:14;;;;;;;5.67;1.33;;;;;;;17.80;49.71;101800.06;5030948;28;20481;-72
2022/05/29 05:02:39;;;;;;;6.53;1.40;;;;;;;18.19;49.38;101798.22;5029436;28;20029;-71
2022/05/29 05:05:06;;;;;;;2.63;1.50;;;;;;;18.97;48.66;101789.88;5031357;28;20053;-72
2022/05/29 05:07:31;;;;;;;5.77;1.57;;;;;;;18.76;48.59;101786.06;5030251;28;20032;-71
2022/05/29 05:09:56;;;;;;;3.40;1.10;;;;;;;19.71;45.88;101790.19;5030517;28;20025;-71
2022/05/29 05:12:22;;;;;;;4.50;1.80;;;;;;;18.88;47.14;101787.53;5025838;28;20438;-72
2022/05/29 05:14:47;;;;;;;6.13;1.40;;;;;;;19.47;46.23;101790.09;5030267;28;20504;-72
2022/05/29 05:17:13;;;;;;;3.23;1.40;;;;;;;19.96;45.39;101789.41;5028216;28;20389;-71
2022/05/29 05:19:38;;;;;;;5.00;1.47;;;;;;;19.21;46.60;101784.75;5032524;28;20021;-72
2022/05/29 05:22:05;;;;;;;2.23;1.00;;;;;;;19.30;46.64;101782.69;5030656;28;20033;-71
2022/05/29 05:24:33;;;;;;;9.03;1.30;;;;;;;19.55;46.28;101786.31;5010184;28;20393;-71
2022/05/29 05:26:59;;;;;;;5.83;2.23;;;;;;;19.16;46.32;101779.56;5028816;28;20045;-71
2022/05/29 05:29:25;;;;;;;1.70;1.00;;;;;;;20.15;44.63;101787.84;5029517;28;20507;-71
2022/05/29 05:31:51;;;;;;;4.20;1.17;;;;;;;19.46;45.49;101788.34;5028209;28;20040;-71
2022/05/29 05:34:16;;;;;;;8.13;1.90;;;;;;;19.77;45.30;101783.81;5029734;28;20108;-71
2022/05/29 05:36:42;;;;;;;5.97;1.23;;;;;;;19.18;45.92;101790.13;5029921;28;20022;-72
2022/05/29 05:39:07;;;;;;;4.13;1.00;;;;;;;19.02;46.86;101795.91;5028636;28;20021;-71
2022/05/29 05:41:33;;;;;;;3.47;1.13;;;;;;;18.79;46.40;101793.91;5030791;28;20025;-71
2022/05/29 05:43:59;;;;;;;4.23;1.57;;;;;;;18.25;47.72;101791.00;5028876;28;20389;-71
2022/05/29 05:46:24;;;;;;;2.93;0.90;;;;;;;18.08;48.68;101788.81;5028452;28;20108;-71
2022/05/29 05:48:51;;;;;;;2.37;1.00;;;;;;;18.37;47.17;101796.84;5031871;28;20056;-71
2022/05/29 05:51:16;;;;;;;4.03;0.90;;;;;;;18.08;49.04;101791.44;5028812;28;20393;-71
2022/05/29 05:53:42;;;;;;;3.53;0.70;;;;;;;19.17;46.72;101791.06;5029183;28;20029;-72
2022/05/29 05:56:12;;;;;;;2.73;0.80;;;;;;;20.00;45.10;101780.41;5062854;28;20029;-71
2022/05/29 05:58:38;;;;;;;2.60;0.80;;;;;;;19.87;44.69;101781.78;5030299;28;20021;-71
2022/05/29 06:01:06;;;;;;;4.83;1.00;;;;;;;20.26;44.45;101776.84;5028711;28;20065;-71
2022/05/29 06:03:32;;;;;;;5.03;1.00;;;;;;;20.28;44.33;101787.44;5063318;28;20079;-71
2022/05/29 06:05:58;;;;;;;2.23;1.07;;;;;;;19.25;45.07;101775.78;5029525;28;20029;-71
2022/05/29 06:08:24;;;;;;;3.93;0.93;;;;;;;19.48;45.68;101773.28;5029898;28;20031;-71
2022/05/29 06:10:49;;;;;;;1.30;1.00;;;;;;;20.01;45.55;101776.84;5030831;28;20029;-72
2022/05/29 06:13:15;;;;;;;5.30;1.10;;;;;;;19.80;45.94;101775.81;5026693;28;20567;-71
2022/05/29 06:15:44;;;;;;;3.50;1.10;;;;;;;20.06;45.21;101774.03;5029676;28;20037;-71
2022/05/29 06:18:10;;;;;;;2.57;1.00;;;;;;;20.79;43.94;101762.53;5030562;28;20032;-71
2022/05/29 06:20:35;;;;;;;3.13;0.90;;;;;;;21.04;43.50;101772.22;5023939;28;20116;-70
2022/05/29 06:23:00;;;;;;;3.92;1.00;;;;;;;22.61;41.54;101761.22;5028007;28;20029;-72
2022/05/29 06:25:26;;;;;;;4.30;1.33;;;;;;;22.78;38.63;101763.97;5033337;28;20112;-71
2022/05/29 06:27:51;;;;;;;2.67;0.80;;;;;;;21.39;40.37;101764.63;5028494;28;20024;-71
2022/05/29 06:30:17;;;;;;;3.45;0.80;;;;;;;21.41;41.05;101767.22;5028493;28;20096;-71
2022/05/29 06:32:43;;;;;;;6.65;1.00;;;;;;;21.66;41.04;101761.78;5028999;28;20079;-71
2022/05/29 06:35:11;;;;;;;4.35;0.77;;;;;;;22.90;39.64;101756.31;5031152;28;20033;-71
2022/05/29 06:37:37;;;;;;;1.92;0.80;;;;;;;23.44;38.65;101767.06;5023706;28;20029;-71
2022/05/29 06:40:04;;;;;;;3.28;0.80;;;;;;;23.85;37.66;101757.00;5061297;28;20056;-71
2022/05/29 06:42:30;;;;;;;1.42;0.80;;;;;;;21.65;39.72;101770.69;5027252;28;20103;-71
2022/05/29 06:44:55;;;;;;;1.92;0.95;;;;;;;22.33;39.00;101757.97;5031212;28;20038;-71
2022/05/29 06:47:21;;;;;;;2.90;0.75;;;;;;;21.88;40.25;101771.50;5029881;28;20512;-71
2022/05/29 06:49:50;;;;;;;2.17;0.82;;;;;;;22.04;40.42;101767.25;5027488;28;20100;-71
2022/05/29 06:52:17;;;;;;;3.85;1.25;;;;;;;21.48;41.89;101768.69;5031089;28;20116;-72
2022/05/29 06:54:42;;;;;;;4.05;1.20;;;;;;;22.78;41.16;101763.09;5029723;28;20100;-71
2022/05/29 06:57:08;;;;;;;6.20;1.30;;;;;;;23.08;40.76;101760.78;5028815;28;20108;-72
2022/05/29 07:08:05;;;;;;;7.43;1.17;;;;;;;20.21;46.24;101768.19;5029406;28;20462;-71
2022/05/29 07:10:32;;;;;;;4.47;1.48;;;;;;;20.03;47.40;101772.38;5023663;28;20481;-70
2022/05/29 07:13:00;;;;;;;5.72;1.75;;;;;;;22.03;43.13;101761.06;5032566;28;20017;-72
2022/05/29 07:15:26;;;;;;;3.50;1.25;;;;;;;21.31;44.94;101758.75;5032305;28;20082;-72
2022/05/29 07:17:51;;;;;;;7.30;1.40;;;;;;;22.04;43.40;101761.94;5033020;28;20492;-71
2022/05/29 07:20:16;;;;;;;2.83;1.30;;;;;;;24.17;40.42;101754.47;5034938;28;20106;-71
2022/05/29 07:22:43;;;;;;;5.00;2.05;;;;;;;23.81;39.25;101758.09;5023817;28;20108;-70
2022/05/29 07:25:12;;;;;;;12.95;1.50;;;;;;;24.64;37.18;101757.38;5031888;28;20025;-71
2022/05/29 07:27:38;;;;;;;3.20;0.98;;;;;;;24.64;37.97;101760.88;5033339;28;20024;-71
2022/05/29 07:30:05;;;;;;;7.32;1.90;;;;;;;25.17;37.75;101758.84;5032095;28;20042;-72
2022/05/29 07:32:31;;;;;;;5.35;1.15;;;;;;;24.05;37.38;101758.63;5033648;28;20477;-72
2022/05/29 07:34:58;;;;;;;6.43;1.63;;;;;;;24.69;38.11;101757.97;5032604;28;20044;-72
2022/05/29 07:37:26;;;;;;;4.28;1.00;;;;;;;22.64;38.45;101761.94;5030039;28;20045;-72
2022/05/29 07:39:52;;;;;;;7.45;1.02;;;;;;;21.90;40.29;101770.53;5032194;28;20033;-71
2022/05/29 07:45:05;;;;;;;3.72;1.20;;;;;;;21.78;40.21;101777.22;5030350;28;20048;-71
2022/05/29 07:47:36;;;;;;;7.53;0.95;;;;;;;21.62;40.59;101765.50;5029286;28;20367;-71
2022/05/29 07:50:03;;;;;;;3.23;0.83;;;;;;;21.90;39.68;101759.00;5032435;28;20114;-72
2022/05/29 07:52:28;;;;;;;2.97;0.98;;;;;;;20.86;41.86;101749.03;5032168;28;20028;-71
2022/05/29 07:54:54;;;;;;;2.88;0.90;;;;;;;19.92;43.58;101755.94;5040138;28;20025;-72
2022/05/29 07:57:19;;;;;;;3.58;1.20;;;;;;;20.14;42.75;101756.94;5032752;28;20037;-72
2022/05/29 07:59:45;;;;;;;5.85;1.10;;;;;;;20.65;41.94;101748.91;5031545;28;21793;-72
2022/05/29 08:02:10;;;;;;;7.05;1.40;;;;;;;21.12;41.59;101755.97;5035662;28;20401;-72
2022/05/29 08:04:37;;;;;;;8.30;1.67;;;;;;;21.40;40.94;101750.38;5031736;28;20472;-72
2022/05/29 08:07:03;;;;;;;5.63;1.30;;;;;;;20.21;43.29;101756.69;5027123;28;20487;-72
2022/05/29 08:09:29;;;;;;;3.33;0.88;;;;;;;21.90;40.75;101759.00;5028120;28;20101;-72
2022/05/29 08:11:54;;;;;;;5.78;1.00;;;;;;;23.19;39.41;101744.28;5032793;28;20408;-72
2022/05/29 08:14:19;;;;;;;9.20;1.60;;;;;;;22.65;40.27;101757.47;5029154;28;20028;-72
2022/05/29 08:16:45;;;;;;;9.98;1.30;;;;;;;22.33;40.91;101757.13;5031727;28;20501;-72
2022/05/29 08:19:10;;;;;;;8.27;1.70;;;;;;;21.51;42.72;101764.13;5032447;28;20037;-72
2022/05/29 08:21:36;;;;;;;6.38;1.15;;;;;;;20.96;43.98;101761.00;5030820;28;20033;-72
2022/05/29 08:32:14;;;;;;;7.65;1.63;;;;;;;21.43;44.41;101754.72;5033239;28;20107;-71
2022/05/29 08:34:39;;;;;;;9.75;1.23;;;;;;;21.55;44.62;101758.72;5051040;28;20098;-72
2022/05/29 08:37:05;;;;;;;5.20;1.73;;;;;;;21.76;43.22;101755.16;5033082;28;20033;-71
2022/05/29 08:39:30;;;;;;;10.65;1.20;;;;;;;21.25;43.38;101745.69;5015623;28;20044;-72
2022/05/29 08:41:58;;;;;;;4.75;1.30;;;;;;;21.41;43.43;101752.13;5032434;28;20030;-71
2022/05/29 08:44:34;;;;;;;9.48;1.42;;;;;;;22.10;42.91;101750.16;5062063;28;20103;-71
2022/05/29 08:47:02;;;;;;;6.88;1.00;;;;;;;23.12;40.79;101738.41;5026039;28;20021;-72
2022/05/29 08:49:32;;;;;;;6.47;1.15;;;;;;;24.66;39.05;101736.75;5031891;28;20052;-71
2022/05/29 08:52:23;;;;;;;2.15;0.73;;;;;;;25.13;37.22;101730.53;5027280;28;20115;-71
2022/05/29 08:55:13;;;;;;;7.00;1.00;;;;;;;24.62;36.61;101735.19;5033172;28;20033;-71
2022/05/29 08:57:53;;;;;;;5.53;0.90;;;;;;;25.18;35.72;101732.94;5027329;28;20021;-72
2022/05/29 09:00:37;;;;;;;3.65;0.90;;;;;;;23.75;38.85;101744.19;5021647;28;20052;-72
2022/05/29 09:03:17;;;;;;;2.67;0.68;;;;;;;24.58;37.95;101733.59;5023719;28;20345;-71
2022/05/29 09:05:46;;;;;;;4.32;0.90;;;;;;;23.82;37.45;101740.25;5012003;28;20030;-71
2022/05/29 09:08:24;;;;;;;5.82;0.60;;;;;;;22.73;36.53;101733.16;5011954;28;20018;-71
2022/05/29 09:10:56;;;;;;;2.38;0.70;;;;;;;22.33;39.32;101736.66;5030274;28;20120;-71
2022/05/29 09:13:33;;;;;;;2.97;0.50;;;;;;;23.04;38.32;101732.53;5034885;28;20493;-71
2022/05/29 09:16:05;;;;;;;2.55;0.43;;;;;;;22.17;39.36;101731.19;5031664;28;20366;-72
2022/05/29 09:18:37;;;;;;;0.82;0.20;;;;;;;22.99;37.53;101726.56;5033158;28;20033;-71
2022/05/29 09:21:10;;;;;;;2.50;0.35;;;;;;;24.88;34.31;101720.38;5050634;28;20151;-71
2022/05/29 09:23:44;;;;;;;1.00;0.20;;;;;;;24.42;34.98;101723.75;5036175;28;20033;-72
2022/05/29 09:26:17;;;;;;;3.20;0.35;;;;;;;26.11;31.63;101712.31;5029891;28;20029;-72
2022/05/29 09:28:42;;;;;;;1.17;0.15;;;;;;;25.95;30.86;101712.34;5028349;28;20049;-72
2022/05/29 09:31:18;;;;;;;0.55;0.30;;;;;;;24.90;31.28;101719.34;5030584;28;20040;-72
2022/05/29 09:33:44;;;;;;;0.40;0.20;;;;;;;22.09;35.57;101735.09;5027145;28;20172;-71
2022/05/29 09:36:16;;;;;;;0.52;0.10;;;;;;;23.45;33.15;101724.34;5030508;28;20108;-71
2022/05/29 09:38:44;;;;;;;1.55;0.20;;;;;;;24.40;32.28;101725.66;5031154;28;20051;-71
2022/05/29 09:41:25;;;;;;;1.35;0.50;;;;;;;23.42;32.92;101727.13;5030162;28;20025;-72
2022/05/29 09:44:08;;;;;;;1.98;0.30;;;;;;;25.05;31.63;101730.13;5026674;28;20034;-72
2022/05/29 09:46:36;;;;;;;0.95;0.40;;;;;;;24.30;31.55;101722.59;5043648;28;20022;-71
2022/05/29 09:52:21;;;;;;;1.45;0.52;;;;;;;25.61;32.41;101713.53;5030240;28;20127;-71
2022/05/29 09:54:56;;;;;;;1.83;0.55;;;;;;;25.03;32.40;101719.53;5029476;28;20041;-72
2022/05/29 09:57:37;;;;;;;4.78;0.55;;;;;;;23.96;32.68;101711.09;5014349;28;20026;-70
2022/05/29 10:00:13;;;;;;;2.05;0.38;;;;;;;25.23;30.67;101713.00;5027404;28;20036;-71
2022/05/29 10:02:42;;;;;;;1.02;0.28;;;;;;;26.42;30.39;101699.69;5027880;28;20048;-72
2022/05/29 10:05:33;;;;;;;0.95;0.30;;;;;;;26.23;30.30;101705.34;5028578;28;20029;-72
2022/05/29 10:08:15;;;;;;;2.92;0.57;;;;;;;24.94;31.62;101720.03;5024605;28;20072;-73
2022/05/29 10:10:40;;;;;;;2.20;0.50;;;;;;;23.98;33.55;101711.00;5035553;28;20057;-72
2022/05/29 10:13:06;;;;;;;3.40;0.50;;;;;;;22.60;35.63;101725.72;5033451;28;20484;-71
2022/05/29 10:15:35;;;;;;;3.20;0.68;;;;;;;20.84;39.25;101735.78;5026265;28;20038;-71
2022/05/29 10:18:30;;;;;;;1.30;0.40;;;;;;;20.39;42.19;101753.38;5025883;28;20033;-71
2022/05/29 10:21:14;;;;;;;3.22;0.80;;;;;;;19.47;47.54;101755.63;5032983;28;20135;-72
2022/05/29 10:23:40;;;;;;;2.83;0.57;;;;;;;19.91;46.82;101746.25;5032875;28;20536;-70
2022/05/29 10:26:36;;;;;;;3.97;1.20;;;;;;;20.12;46.39;101741.97;5035210;28;20293;-71
2022/05/29 10:29:29;;;;;;;2.33;0.85;;;;;;;19.40;49.96;101748.78;5022097;28;20044;-72
2022/05/29 10:31:56;;;;;;;4.57;0.55;;;;;;;19.59;48.40;101733.16;5032642;28;20029;-71
2022/05/29 10:34:27;;;;;;;3.97;0.65;;;;;;;20.36;48.06;101740.22;5031326;28;20064;-71
2022/05/29 10:36:52;;;;;;;4.45;0.95;;;;;;;19.62;48.29;101738.34;5032249;28;20474;-71
2022/05/29 10:39:24;;;;;;;3.25;0.70;;;;;;;21.21;46.12;101734.31;5033338;28;20052;-72
2022/05/29 10:41:51;;;;;;;3.38;0.63;;;;;;;20.14;46.92;101735.69;5033320;28;20078;-71
2022/05/29 10:44:45;;;;;;;5.82;0.93;;;;;;;19.81;47.62;101733.31;5028388;28;20033;-71
2022/05/29 10:47:13;;;;;;;3.22;0.73;;;;;;;18.02;50.58;101743.97;5037175;28;20419;-71
2022/05/29 10:49:47;;;;;;;3.00;0.70;;;;;;;20.78;46.75;101731.56;5038793;28;20017;-71
2022/05/29 10:52:20;;;;;;;4.32;1.30;;;;;;;22.09;44.41;101728.00;5031563;28;20104;-71
2022/05/29 10:55:12;;;;;;;5.20;0.90;;;;;;;21.07;45.05;101726.91;5033620;28;20120;-71
2022/05/29 10:57:57;;;;;;;6.17;1.10;;;;;;;20.64;46.44;101723.25;5033967;28;20120;-71
2022/05/29 11:00:50;;;;;;;7.38;1.08;;;;;;;21.41;44.63;101728.19;5034658;28;20025;-71
2022/05/29 11:03:18;;;;;;;6.72;2.28;;;;;;;21.53;45.92;101732.19;5033115;28;20041;-71
2022/05/29 11:06:02;;;;;;;5.32;1.10;;;;;;;20.95;46.81;101722.97;5026291;28;20087;-72
2022/05/29 11:08:34;;;;;;;6.75;1.30;;;;;;;20.16;46.27;101728.53;5022719;28;20030;-70
2022/05/29 11:11:17;;;;;;;6.47;1.10;;;;;;;20.03;43.79;101732.56;5033601;28;20025;-71
2022/05/29 11:14:01;;;;;;;4.47;0.90;;;;;;;19.85;42.43;101730.53;5022311;28;20428;-71
2022/05/29 11:16:52;;;;;;;3.55;0.68;;;;;;;22.05;40.86;101721.09;5056326;28;20080;-72
2022/05/29 11:19:26;;;;;;;11.20;0.80;;;;;;;20.86;40.54;101727.78;5032275;28;20397;-71
2022/05/29 11:22:00;;;;;;;1.83;0.75;;;;;;;19.20;42.83;101724.72;5033905;28;20044;-71
2022/05/29 11:24:55;;;;;;;5.13;1.15;;;;;;;20.50;41.89;101715.81;5032378;28;20033;-72
2022/05/29 11:27:42;;;;;;;4.53;1.02;;;;;;;21.65;39.19;101706.84;5026730;28;20037;-71
2022/05/29 11:30:21;;;;;;;3.20;0.93;;;;;;;20.81;39.09;101709.34;5033985;28;20059;-71
2022/05/29 11:33:06;;;;;;;6.38;0.73;;;;;;;21.39;38.22;101700.81;5034410;28;20036;-72
2022/05/29 11:35:35;;;;;;;10.40;1.20;;;;;;;22.58;37.34;101697.44;5033769;28;20031;-71
2022/05/29 11:38:14;;;;;;;5.38;1.05;;;;;;;23.16;35.62;101694.66;5033108;28;20034;-72
2022/05/29 11:40:48;;;;;;;4.53;0.70;;;;;;;22.02;35.36;101689.25;5033039;28;20079;-71
2022/05/29 11:43:47;;;;;;;3.13;0.85;;;;;;;22.17;36.40;101693.91;5033293;28;20116;-71
2022/05/29 11:52:23;;;;;;;3.00;0.73;;;;;;;23.83;33.81;101681.44;5033364;28;20037;-71
2022/05/29 11:55:13;;;;;;;5.03;0.82;;;;;;;23.57;33.89;101695.31;5032383;28;20117;-71
2022/05/29 11:57:47;;;;;;;2.17;0.70;;;;;;;22.95;34.42;101680.53;5031010;28;20032;-71
2022/05/29 12:00:31;;;;;;;3.25;0.93;;;;;;;24.11;33.28;101685.38;5033968;28;20028;-72
2022/05/29 12:03:04;;;;;;;6.72;1.05;;;;;;;23.29;33.88;101678.03;5031521;28;20039;-70
2022/05/29 12:05:43;;;;;;;2.72;0.60;;;;;;;22.46;35.02;101681.09;5027775;28;20057;-71
2022/05/29 12:08:47;;;;;;;3.10;0.60;;;;;;;22.98;33.00;101679.50;5032367;28;20352;-71
2022/05/29 12:11:18;;;;;;;;;;;;;;;22.71;33.94;101671.94;5032180;28;20078;-72
2022/05/29 12:13:58;;;;;;;2.40;0.70;;;;;;;23.79;32.73;101685.22;5022892;28;19970;-72
2022/05/29 12:16:30;;;;;;;0.88;0.38;;;;;;;22.41;33.22;101675.09;5033453;28;20030;-73
2022/05/29 12:18:58;;;;;;;2.20;0.90;;;;;;;22.77;33.44;101666.28;5064734;28;20025;-72
2022/05/29 12:21:47;;;;;;;5.32;0.55;;;;;;;22.57;32.94;101675.22;5033268;28;20045;-71